createdAt,value
2023-03-03T00:01:55.388Z,2.30
2023-03-03T00:04:22.413Z,2.30
2023-03-03T00:06:49.303Z,2.40
2023-03-03T00:09:16.276Z,2.40
2023-03-03T00:11:43.230Z,2.50
2023-03-03T00:14:27.079Z,2.60
2023-03-03T00:16:55.710Z,2.60
2023-03-03T00:19:23.532Z,2.70
2023-03-03T00:21:51.477Z,2.70
2023-03-03T00:24:24.196Z,2.70
2023-03-03T00:26:56.252Z,2.70
2023-03-03T00:29:41.406Z,2.80
2023-03-03T00:32:08.397Z,2.80
2023-03-03T00:34:37.486Z,2.90
2023-03-03T00:37:11.606Z,2.90
2023-03-03T00:39:39.353Z,2.90
2023-03-03T00:42:18.009Z,2.90
2023-03-03T00:44:49.552Z,2.90
2023-03-03T00:47:51.715Z,2.90
2023-03-03T00:50:33.725Z,3.00
2023-03-03T00:53:06.653Z,3.00
2023-03-03T00:55:34.953Z,3.00
2023-03-03T00:58:02.442Z,3.10
2023-03-03T01:00:29.451Z,3.10
2023-03-03T01:02:56.683Z,3.10
2023-03-03T01:05:23.781Z,3.10
2023-03-03T01:07:50.810Z,3.10
2023-03-03T01:10:17.820Z,3.20
2023-03-03T01:12:45.102Z,3.20
2023-03-03T01:15:14.048Z,3.20
2023-03-03T01:17:43.214Z,3.20
2023-03-03T01:20:12.372Z,3.30
2023-03-03T01:22:39.355Z,3.30
2023-03-03T01:25:06.941Z,3.30
2023-03-03T01:27:35.902Z,3.20
2023-03-03T01:30:05.254Z,3.20
2023-03-03T01:32:32.428Z,3.20
2023-03-03T01:34:59.371Z,3.20
2023-03-03T01:37:26.448Z,3.30
2023-03-03T01:39:55.155Z,3.20
2023-03-03T01:42:22.827Z,3.20
2023-03-03T01:44:49.972Z,3.20
2023-03-03T01:47:26.980Z,3.20
2023-03-03T01:50:04.134Z,3.20
2023-03-03T01:52:36.224Z,3.20
2023-03-03T01:55:10.204Z,3.10
2023-03-03T01:57:48.749Z,3.10
2023-03-03T02:00:16.988Z,3.00
2023-03-03T02:02:44.745Z,2.90
2023-03-03T02:05:13.230Z,2.90
2023-03-03T02:07:40.282Z,2.80
2023-03-03T02:10:15.691Z,2.80
2023-03-03T02:12:53.017Z,2.80
2023-03-03T02:15:37.424Z,2.80
2023-03-03T02:18:12.587Z,2.70
2023-03-03T02:21:05.145Z,2.70
2023-03-03T02:23:59.666Z,2.70
2023-03-03T02:26:29.039Z,2.70
2023-03-03T02:28:56.035Z,2.70
2023-03-03T02:31:25.602Z,2.70
2023-03-03T02:33:53.921Z,2.70
2023-03-03T02:36:23.684Z,2.70
2023-03-03T02:39:14.232Z,2.70
2023-03-03T02:42:11.294Z,2.70
2023-03-03T02:44:38.829Z,2.70
2023-03-03T02:47:05.838Z,2.70
2023-03-03T02:49:35.512Z,2.60
2023-03-03T02:52:06.097Z,2.60
2023-03-03T02:54:33.314Z,2.60
2023-03-03T02:57:01.031Z,2.60
2023-03-03T03:01:56.631Z,2.60
2023-03-03T03:04:26.173Z,2.60
2023-03-03T03:06:54.169Z,2.70
2023-03-03T03:09:23.097Z,2.70
2023-03-03T03:11:50.131Z,2.70
2023-03-03T03:14:17.360Z,2.80
2023-03-03T03:16:44.427Z,2.80
2023-03-03T03:19:11.538Z,2.80
2023-03-03T03:21:38.714Z,2.90
2023-03-03T03:24:06.041Z,2.90
2023-03-03T03:26:33.001Z,2.90
2023-03-03T03:29:00.057Z,2.90
2023-03-03T03:31:27.626Z,2.90
2023-03-03T03:33:54.560Z,2.90
2023-03-03T03:36:21.548Z,2.90
2023-03-03T03:38:48.501Z,2.90
2023-03-03T03:41:15.567Z,2.90
2023-03-03T03:43:42.508Z,2.90
2023-03-03T03:46:09.633Z,2.90
2023-03-03T03:48:36.857Z,2.90
2023-03-03T03:51:04.116Z,2.90
2023-03-03T03:53:31.361Z,2.90
2023-03-03T03:55:58.328Z,2.90
2023-03-03T03:58:25.225Z,2.90
2023-03-03T04:00:52.176Z,2.90
2023-03-03T04:03:19.228Z,2.90
2023-03-03T04:05:46.318Z,2.90
2023-03-03T04:08:13.449Z,2.90
2023-03-03T04:10:40.746Z,2.90
2023-03-03T04:13:07.739Z,2.90
2023-03-03T04:15:34.707Z,2.90
2023-03-03T04:18:02.152Z,2.90
2023-03-03T04:20:29.130Z,2.90
2023-03-03T04:22:57.267Z,2.90
2023-03-03T04:25:24.356Z,2.90
2023-03-03T04:27:52.980Z,2.90
2023-03-03T04:30:19.954Z,3.00
2023-03-03T04:32:47.640Z,3.00
2023-03-03T04:35:14.754Z,3.00
2023-03-03T04:37:41.738Z,3.00
2023-03-03T04:40:10.272Z,3.00
2023-03-03T04:42:37.354Z,3.00
2023-03-03T04:45:05.589Z,3.00
2023-03-03T04:47:32.755Z,3.00
2023-03-03T04:50:00.889Z,3.00
2023-03-03T04:52:28.383Z,3.10
2023-03-03T04:54:55.359Z,3.10
2023-03-03T04:57:22.466Z,3.10
2023-03-03T04:59:49.440Z,3.10
2023-03-03T05:02:16.970Z,3.20
2023-03-03T05:04:44.178Z,3.20
2023-03-03T05:07:11.113Z,3.20
2023-03-03T05:09:38.396Z,3.10
2023-03-03T05:12:05.715Z,3.10
2023-03-03T05:14:32.731Z,3.20
2023-03-03T05:16:59.651Z,3.20
2023-03-03T05:19:26.684Z,3.20
2023-03-03T05:21:53.729Z,3.10
2023-03-03T05:24:20.980Z,3.10
2023-03-03T05:26:48.051Z,3.10
2023-03-03T05:29:15.090Z,3.00
2023-03-03T05:31:43.989Z,3.00
2023-03-03T05:34:12.373Z,3.00
2023-03-03T05:36:39.295Z,3.00
2023-03-03T05:39:06.262Z,3.00
2023-03-03T05:41:36.929Z,3.00
2023-03-03T05:44:04.662Z,3.00
2023-03-03T05:46:31.714Z,2.90
2023-03-03T05:48:58.979Z,2.90
2023-03-03T05:51:26.111Z,2.90
2023-03-03T05:53:56.041Z,2.90
2023-03-03T05:56:23.388Z,2.90
2023-03-03T05:58:50.532Z,2.90
2023-03-03T06:01:17.607Z,2.80
2023-03-03T06:03:44.556Z,2.80
2023-03-03T06:06:12.456Z,2.80
2023-03-03T06:08:39.468Z,2.80
2023-03-03T06:11:06.410Z,2.80
2023-03-03T06:13:33.331Z,2.80
2023-03-03T06:16:00.389Z,2.80
2023-03-03T06:18:27.417Z,2.80
2023-03-03T06:20:55.076Z,2.90
2023-03-03T06:23:22.601Z,2.90
2023-03-03T06:25:49.576Z,3.00
2023-03-03T06:28:16.500Z,3.00
2023-03-03T06:30:43.690Z,3.10
2023-03-03T06:33:10.690Z,3.30
2023-03-03T06:35:38.090Z,3.60
2023-03-03T06:38:05.038Z,3.90
2023-03-03T06:40:31.999Z,4.10
2023-03-03T06:42:59.613Z,4.10
2023-03-03T06:45:26.564Z,4.00
2023-03-03T06:47:53.552Z,4.00
2023-03-03T06:50:21.619Z,4.00
2023-03-03T06:52:48.616Z,4.00
2023-03-03T06:55:23.914Z,4.10
2023-03-03T06:57:51.165Z,4.20
2023-03-03T07:00:30.780Z,4.40
2023-03-03T07:03:08.723Z,4.40
2023-03-03T07:05:35.676Z,4.40
2023-03-03T07:08:04.100Z,4.30
2023-03-03T07:10:31.520Z,4.20
2023-03-03T07:13:27.506Z,4.10
2023-03-03T07:15:56.836Z,4.00
2023-03-03T07:18:29.998Z,4.00
2023-03-03T07:20:57.010Z,3.90
2023-03-03T07:23:32.492Z,3.90
2023-03-03T07:25:59.485Z,3.80
2023-03-03T07:28:33.119Z,3.70
2023-03-03T07:31:00.265Z,3.80
2023-03-03T07:33:28.320Z,3.80
2023-03-03T07:35:59.865Z,3.70
2023-03-03T07:38:40.388Z,3.70
2023-03-03T07:41:17.839Z,3.80
2023-03-03T07:44:01.584Z,3.70
2023-03-03T07:46:31.374Z,3.70
2023-03-03T07:48:59.416Z,3.80
2023-03-03T07:51:36.904Z,3.90
2023-03-03T07:54:34.994Z,3.90
2023-03-03T07:57:08.312Z,3.90
2023-03-03T07:59:40.201Z,4.10
2023-03-03T08:02:37.676Z,4.10
2023-03-03T08:05:19.712Z,4.20
2023-03-03T08:07:46.990Z,4.40
2023-03-03T08:10:36.860Z,4.50
2023-03-03T08:13:24.109Z,4.70
2023-03-03T08:15:55.834Z,4.70
2023-03-03T08:18:30.473Z,4.70
2023-03-03T08:21:04.939Z,4.70
2023-03-03T08:23:34.865Z,4.60
2023-03-03T08:26:01.998Z,4.40
2023-03-03T08:28:29.090Z,4.20
2023-03-03T08:31:12.960Z,4.20
2023-03-03T08:33:43.300Z,4.30
2023-03-03T08:36:10.712Z,4.60
2023-03-03T08:38:37.973Z,4.70
2023-03-03T08:41:05.074Z,4.80
2023-03-03T08:43:32.212Z,4.80
2023-03-03T08:46:02.131Z,5.00
2023-03-03T08:48:30.167Z,5.10
2023-03-03T08:50:57.168Z,5.00
2023-03-03T08:53:24.302Z,4.90
2023-03-03T08:55:51.265Z,4.70
2023-03-03T08:58:21.194Z,4.60
2023-03-03T09:00:50.641Z,4.60
2023-03-03T09:03:18.151Z,4.70
2023-03-03T09:05:45.818Z,4.70
2023-03-03T09:08:12.850Z,4.70
2023-03-03T09:10:40.098Z,4.80
2023-03-03T09:13:16.010Z,4.90
2023-03-03T09:15:43.495Z,5.00
2023-03-03T09:18:28.863Z,4.90
2023-03-03T09:20:58.847Z,5.00
2023-03-03T09:23:38.264Z,5.10
2023-03-03T09:26:28.637Z,5.30
2023-03-03T09:29:15.813Z,5.40
2023-03-03T09:31:51.877Z,5.40
2023-03-03T09:34:34.771Z,5.50
2023-03-03T09:37:04.834Z,5.60
2023-03-03T09:39:35.038Z,5.50
2023-03-03T09:42:13.635Z,5.50
2023-03-03T09:44:52.210Z,5.50
2023-03-03T09:47:43.559Z,5.70
2023-03-03T09:50:47.790Z,5.60
2023-03-03T09:53:23.812Z,5.60
2023-03-03T09:56:16.879Z,5.50
2023-03-03T09:59:04.698Z,5.50
2023-03-03T10:01:59.103Z,5.50
2023-03-03T10:04:59.292Z,5.50
2023-03-03T10:08:03.671Z,5.60
2023-03-03T10:10:49.129Z,5.60
2023-03-03T10:13:37.714Z,5.50
2023-03-03T10:16:13.414Z,5.40
2023-03-03T10:18:58.454Z,5.40
2023-03-03T10:21:48.560Z,5.50
2023-03-03T10:24:32.049Z,5.80
2023-03-03T10:27:36.614Z,5.90
2023-03-03T10:30:58.559Z,6.10
2023-03-03T10:33:55.186Z,6.10
2023-03-03T10:36:43.719Z,5.80
2023-03-03T10:39:36.619Z,5.70
2023-03-03T10:42:37.502Z,5.70
2023-03-03T10:45:16.159Z,5.90
2023-03-03T10:48:15.153Z,6.00
2023-03-03T10:51:25.248Z,5.80
2023-03-03T10:54:21.287Z,5.80
2023-03-03T10:56:57.617Z,5.70
2023-03-03T11:00:05.613Z,5.60
2023-03-03T11:02:50.329Z,5.50
2023-03-03T11:05:35.798Z,5.40
2023-03-03T11:08:22.930Z,5.40
2023-03-03T11:11:15.069Z,5.30
2023-03-03T11:14:03.202Z,5.40
2023-03-03T11:16:44.582Z,5.50
2023-03-03T11:19:30.262Z,5.50
2023-03-03T11:22:23.421Z,5.60
2023-03-03T11:25:05.463Z,5.50
2023-03-03T11:27:42.774Z,5.50
2023-03-03T11:30:12.886Z,5.60
2023-03-03T11:32:58.289Z,5.70
2023-03-03T11:35:49.547Z,5.80
2023-03-03T11:38:41.005Z,5.60
2023-03-03T11:41:19.185Z,5.60
2023-03-03T11:43:51.642Z,5.70
2023-03-03T11:46:25.234Z,5.80
2023-03-03T11:49:05.225Z,5.80
2023-03-03T11:51:55.202Z,5.70
2023-03-03T11:54:32.695Z,5.70
2023-03-03T11:57:28.783Z,5.80
2023-03-03T12:00:48.329Z,5.80
2023-03-03T12:03:47.496Z,5.90
2023-03-03T12:06:29.348Z,5.80
2023-03-03T12:09:12.911Z,5.70
2023-03-03T12:12:04.688Z,5.70
2023-03-03T12:14:50.230Z,5.70
2023-03-03T12:17:35.974Z,5.70
2023-03-03T12:20:21.840Z,5.70
2023-03-03T12:23:07.234Z,5.60
2023-03-03T12:25:45.602Z,5.60
2023-03-03T12:28:22.380Z,5.60
2023-03-03T12:30:58.129Z,5.60
2023-03-03T12:33:28.951Z,5.60
2023-03-03T12:36:02.378Z,5.50
2023-03-03T12:38:50.900Z,5.40
2023-03-03T12:41:37.950Z,5.50
2023-03-03T12:44:13.497Z,5.60
2023-03-03T12:46:53.540Z,5.70
2023-03-03T12:49:21.661Z,5.70
2023-03-03T12:52:03.919Z,5.70
2023-03-03T12:54:39.893Z,5.70
2023-03-03T12:57:19.841Z,5.80
2023-03-03T13:00:14.390Z,5.80
2023-03-03T13:02:47.755Z,5.70
2023-03-03T13:05:27.572Z,5.80
2023-03-03T13:08:18.586Z,5.90
2023-03-03T13:10:53.220Z,6.00
2023-03-03T13:14:04.492Z,5.80
2023-03-03T13:16:41.482Z,5.50
2023-03-03T13:19:16.349Z,5.20
2023-03-03T13:21:55.175Z,5.10
2023-03-03T13:24:27.500Z,5.00
2023-03-03T13:27:00.117Z,5.20
2023-03-03T13:29:28.677Z,5.30
2023-03-03T13:32:29.065Z,5.40
2023-03-03T13:35:19.438Z,5.50
2023-03-03T13:37:52.754Z,5.60
2023-03-03T13:40:35.609Z,5.70
2023-03-03T13:43:21.447Z,5.80
2023-03-03T13:46:13.800Z,5.80
2023-03-03T13:48:51.447Z,5.80
2023-03-03T13:51:48.360Z,5.70
2023-03-03T13:54:53.070Z,5.80
2023-03-03T13:57:26.304Z,5.90
2023-03-03T14:00:24.474Z,6.00
2023-03-03T14:03:15.613Z,6.00
2023-03-03T14:05:46.354Z,5.90
2023-03-03T14:08:13.829Z,5.90
2023-03-03T14:10:59.309Z,5.90
2023-03-03T14:13:38.539Z,5.80
2023-03-03T14:16:11.172Z,5.60
2023-03-03T14:18:48.196Z,5.50
2023-03-03T14:21:36.105Z,5.40
2023-03-03T14:24:18.814Z,5.30
2023-03-03T14:26:53.742Z,5.40
2023-03-03T14:29:26.390Z,5.50
2023-03-03T14:32:17.401Z,5.50
2023-03-03T14:34:44.378Z,5.60
2023-03-03T14:37:26.545Z,5.60
2023-03-03T14:40:14.689Z,5.50
2023-03-03T14:42:54.946Z,5.40
2023-03-03T14:45:33.319Z,5.20
2023-03-03T14:48:05.954Z,5.20
2023-03-03T14:50:42.228Z,5.20
2023-03-03T14:53:14.870Z,5.30
2023-03-03T14:55:44.595Z,5.20
2023-03-03T14:58:35.024Z,5.20
2023-03-03T15:01:23.379Z,5.00
2023-03-03T15:04:27.166Z,4.90
2023-03-03T15:06:55.751Z,4.90
2023-03-03T15:09:33.912Z,4.90
2023-03-03T15:12:01.652Z,4.80
2023-03-03T15:14:43.157Z,4.70
2023-03-03T15:17:23.684Z,4.50
2023-03-03T15:20:10.929Z,4.40
2023-03-03T15:23:05.609Z,4.30
2023-03-03T15:25:43.002Z,4.20
2023-03-03T15:28:31.972Z,4.10
2023-03-03T15:31:56.261Z,4.00
2023-03-03T15:34:38.616Z,3.90
2023-03-03T15:37:45.236Z,3.80
2023-03-03T15:40:19.839Z,3.80
2023-03-03T15:42:48.984Z,3.70
2023-03-03T15:45:27.063Z,3.60
2023-03-03T15:48:02.093Z,3.60
2023-03-03T15:50:35.408Z,3.50
2023-03-03T15:53:27.416Z,3.50
2023-03-03T15:56:07.098Z,3.50
2023-03-03T15:58:44.045Z,3.40
2023-03-03T16:01:35.279Z,3.40
2023-03-03T16:04:07.136Z,3.40
2023-03-03T16:07:04.356Z,3.30
2023-03-03T16:09:52.233Z,3.30
2023-03-03T16:12:40.878Z,3.20
2023-03-03T16:15:32.992Z,3.20
2023-03-03T16:18:24.736Z,3.20
2023-03-03T16:20:57.534Z,3.20
2023-03-03T16:23:32.160Z,3.10
2023-03-03T16:26:16.280Z,3.30
2023-03-03T16:28:52.582Z,3.20
2023-03-03T16:31:54.413Z,3.30
2023-03-03T16:34:53.588Z,3.20
2023-03-03T16:37:45.781Z,3.30
2023-03-03T16:40:36.085Z,3.40
2023-03-03T16:43:21.736Z,3.40
2023-03-03T16:45:49.056Z,3.40
2023-03-03T16:48:51.508Z,3.40
2023-03-03T16:51:41.404Z,3.50
2023-03-03T16:54:08.382Z,3.60
2023-03-03T16:57:03.534Z,3.70
2023-03-03T17:00:08.821Z,3.70
2023-03-03T17:02:46.694Z,3.80
2023-03-03T17:05:33.623Z,3.80
2023-03-03T17:08:36.178Z,3.80
2023-03-03T17:11:16.215Z,3.80
2023-03-03T17:13:52.123Z,3.80
2023-03-03T17:16:52.748Z,3.80
2023-03-03T17:19:25.615Z,3.80
2023-03-03T17:22:27.835Z,3.80
2023-03-03T17:25:17.173Z,3.80
2023-03-03T17:27:55.829Z,3.80
2023-03-03T17:30:35.426Z,3.90
2023-03-03T17:33:31.519Z,3.90
2023-03-03T17:36:07.598Z,3.90
2023-03-03T17:39:12.788Z,3.80
2023-03-03T17:42:07.066Z,3.80
2023-03-03T17:44:42.853Z,3.80
2023-03-03T17:47:15.394Z,3.70
2023-03-03T17:50:05.180Z,3.70
2023-03-03T17:52:50.438Z,3.70
2023-03-03T17:55:41.180Z,3.70
2023-03-03T17:58:45.212Z,3.60
2023-03-03T18:01:21.254Z,3.60
2023-03-03T18:04:01.881Z,3.60
2023-03-03T18:06:37.646Z,3.60
2023-03-03T18:09:28.596Z,3.60
2023-03-03T18:11:58.390Z,3.50
2023-03-03T18:14:56.273Z,3.60
2023-03-03T18:17:41.071Z,3.60
2023-03-03T18:20:49.272Z,3.60
2023-03-03T18:23:42.134Z,3.50
2023-03-03T18:26:39.730Z,3.50
2023-03-03T18:29:21.682Z,3.50
2023-03-03T18:31:57.573Z,3.40
2023-03-03T18:34:38.384Z,3.30
2023-03-03T18:37:27.011Z,3.30
2023-03-03T18:40:02.796Z,3.20
2023-03-03T18:42:33.141Z,3.10
2023-03-03T18:45:19.624Z,3.10
2023-03-03T18:48:04.920Z,3.10
2023-03-03T18:50:43.533Z,3.10
2023-03-03T18:53:18.019Z,3.10
2023-03-03T18:55:49.545Z,3.10
2023-03-03T18:58:16.440Z,3.10
2023-03-03T19:01:12.289Z,3.10
2023-03-03T19:03:48.088Z,3.00
2023-03-03T19:06:52.160Z,3.00
2023-03-03T19:09:47.255Z,3.00
2023-03-03T19:12:17.094Z,3.00
2023-03-03T19:14:48.914Z,3.00
2023-03-03T19:17:18.935Z,3.00
2023-03-03T19:20:18.283Z,3.00
2023-03-03T19:23:06.896Z,3.10
2023-03-03T19:25:34.076Z,3.10
2023-03-03T19:28:03.972Z,3.10
2023-03-03T19:31:01.278Z,3.10
2023-03-03T19:33:46.143Z,3.10
2023-03-03T19:36:58.192Z,3.20
2023-03-03T19:39:52.358Z,3.20
2023-03-03T19:42:22.390Z,3.20
2023-03-03T19:44:49.507Z,3.20
2023-03-03T19:47:19.482Z,3.30
2023-03-03T19:50:08.492Z,3.30
2023-03-03T19:52:38.257Z,3.30
2023-03-03T19:55:20.236Z,3.30
2023-03-03T19:57:59.000Z,3.30
2023-03-03T20:00:48.202Z,3.30
2023-03-03T20:03:56.878Z,3.30
2023-03-03T20:06:25.585Z,3.30
2023-03-03T20:09:09.213Z,3.20
2023-03-03T20:11:56.799Z,3.20
2023-03-03T20:14:36.379Z,3.30
2023-03-03T20:17:25.079Z,3.30
2023-03-03T20:20:11.527Z,3.40
2023-03-03T20:23:05.402Z,3.40
2023-03-03T20:25:54.102Z,3.40
2023-03-03T20:28:59.345Z,3.40
2023-03-03T20:31:49.504Z,3.40
2023-03-03T20:34:16.781Z,3.40
2023-03-03T20:36:56.962Z,3.50
2023-03-03T20:39:45.637Z,3.50
2023-03-03T20:42:44.783Z,3.60
2023-03-03T20:45:39.901Z,3.50
2023-03-03T20:48:28.322Z,3.40
2023-03-03T20:51:20.091Z,3.30
2023-03-03T20:54:34.432Z,3.20
2023-03-03T20:57:33.964Z,3.00
2023-03-03T21:00:28.308Z,2.80
2023-03-03T21:03:15.626Z,2.80
2023-03-03T21:05:59.140Z,2.70
2023-03-03T21:08:54.553Z,2.70
2023-03-03T21:11:32.360Z,2.70
2023-03-03T21:14:10.548Z,2.70
2023-03-03T21:16:38.067Z,2.60
2023-03-03T21:19:22.861Z,2.70
2023-03-03T21:21:50.643Z,2.70
2023-03-03T21:24:20.902Z,2.80
2023-03-03T21:26:59.048Z,2.80
2023-03-03T21:29:34.450Z,2.90
2023-03-03T21:32:09.834Z,2.90
2023-03-03T21:34:39.321Z,3.00
2023-03-03T21:37:12.349Z,3.10
2023-03-03T21:39:41.606Z,3.10
2023-03-03T21:42:19.333Z,3.10
2023-03-03T21:44:52.214Z,3.00
2023-03-03T21:47:22.172Z,3.00
2023-03-03T21:49:51.506Z,2.90
2023-03-03T21:52:20.415Z,2.80
2023-03-03T21:54:49.148Z,2.60
2023-03-03T21:57:16.258Z,2.40
2023-03-03T21:59:43.625Z,2.20
2023-03-03T22:02:10.680Z,2.10
2023-03-03T22:04:39.030Z,2.10
2023-03-03T22:07:06.181Z,2.10
2023-03-03T22:09:33.230Z,2.00
2023-03-03T22:12:00.177Z,2.00
2023-03-03T22:14:27.198Z,2.00
2023-03-03T22:16:54.219Z,2.00
2023-03-03T22:19:21.488Z,2.00
2023-03-03T22:21:49.737Z,2.10
2023-03-03T22:27:09.257Z,2.10
2023-03-03T22:29:36.210Z,2.00
2023-03-03T22:32:03.182Z,2.10
2023-03-03T22:34:30.644Z,2.10
2023-03-03T22:36:57.774Z,2.10
2023-03-03T22:39:24.739Z,2.10
2023-03-03T22:41:51.671Z,2.10
2023-03-03T22:44:18.621Z,2.10
2023-03-03T22:46:45.515Z,2.10
2023-03-03T22:49:12.595Z,2.10
2023-03-03T22:51:39.534Z,2.10
2023-03-03T22:54:06.525Z,2.10
2023-03-03T22:56:33.423Z,2.20
2023-03-03T22:59:00.369Z,2.20
2023-03-03T23:01:27.309Z,2.20
2023-03-03T23:03:54.241Z,2.20
2023-03-03T23:06:21.155Z,2.10
2023-03-03T23:08:48.145Z,2.00
2023-03-03T23:11:15.122Z,1.90
2023-03-03T23:13:42.167Z,1.90
2023-03-03T23:16:09.171Z,1.80
2023-03-03T23:18:36.161Z,1.70
2023-03-03T23:21:03.200Z,1.70
2023-03-03T23:23:30.690Z,1.70
2023-03-03T23:25:57.694Z,1.60
2023-03-03T23:28:24.738Z,1.60
2023-03-03T23:30:52.446Z,1.70
2023-03-03T23:33:19.473Z,1.70
2023-03-03T23:35:46.522Z,1.70
2023-03-03T23:38:17.578Z,1.60
2023-03-03T23:40:46.860Z,1.60
2023-03-03T23:43:14.613Z,1.60
2023-03-03T23:45:41.843Z,1.60
2023-03-03T23:48:09.104Z,1.60
2023-03-03T23:50:39.384Z,1.60
2023-03-03T23:53:07.261Z,1.60
2023-03-03T23:55:34.960Z,1.60
2023-03-03T23:58:01.936Z,1.50
